createdAt,value
2018-11-14T00:02:38.748Z,22.4
2018-11-14T00:12:42.322Z,22.3
2018-11-14T00:22:46.002Z,22.3
2018-11-14T00:32:49.585Z,22.3
2018-11-14T00:42:53.234Z,22.3
2018-11-14T00:52:56.919Z,22.3
2018-11-14T01:03:00.416Z,22.3
2018-11-14T01:13:04.135Z,22.2
2018-11-14T01:23:07.915Z,22.2
2018-11-14T01:33:12.523Z,22.2
2018-11-14T01:43:16.157Z,22.2
2018-11-14T01:53:19.752Z,22.1
2018-11-14T02:03:23.303Z,22.1
2018-11-14T02:13:26.928Z,22.1
2018-11-14T02:23:30.642Z,22.1
2018-11-14T02:33:34.193Z,22.1
2018-11-14T02:43:37.735Z,22
2018-11-14T02:53:41.392Z,22
2018-11-14T03:03:44.949Z,22
2018-11-14T03:13:48.534Z,22
2018-11-14T03:23:52.184Z,21.9
2018-11-14T03:33:55.829Z,21.9
2018-11-14T03:43:59.453Z,21.9
2018-11-14T03:54:03.081Z,21.9
2018-11-14T04:04:06.739Z,21.9
2018-11-14T04:14:10.327Z,21.8
2018-11-14T04:24:13.962Z,21.8
2018-11-14T04:34:17.588Z,21.9
2018-11-14T04:44:21.155Z,21.8
2018-11-14T04:54:24.834Z,21.8
2018-11-14T05:04:28.447Z,21.7
2018-11-14T05:14:32.139Z,21.7
2018-11-14T05:24:35.936Z,21.7
2018-11-14T05:34:40.046Z,21.7
2018-11-14T05:44:43.752Z,21.7
2018-11-14T05:54:47.390Z,21.7
2018-11-14T06:04:51.317Z,21.7
2018-11-14T06:14:54.980Z,21.7
2018-11-14T06:24:58.681Z,21.7
2018-11-14T06:35:02.306Z,21.7
2018-11-14T06:45:05.916Z,21.7
2018-11-14T06:55:09.529Z,20.6
2018-11-14T07:05:13.257Z,20.7
2018-11-14T07:15:17.655Z,21.5
2018-11-14T07:25:21.217Z,21.8
2018-11-14T07:35:24.849Z,21.9
2018-11-14T07:45:28.468Z,22
2018-11-14T07:55:32.012Z,22
2018-11-14T08:05:35.627Z,22.1
2018-11-14T08:15:39.237Z,22.2
2018-11-14T08:25:42.840Z,22.2
2018-11-14T08:35:46.460Z,22.3
2018-11-14T08:45:50.154Z,22.3
2018-11-14T08:55:53.691Z,22.4
2018-11-14T09:05:57.312Z,22.5
2018-11-14T09:16:00.958Z,22.5
2018-11-14T09:26:04.612Z,22.6
2018-11-14T09:36:08.258Z,22.7
2018-11-14T09:46:11.831Z,22.7
2018-11-14T09:56:15.519Z,22.7
2018-11-14T10:06:19.226Z,22.7
2018-11-14T10:16:22.808Z,22.8
2018-11-14T10:26:26.427Z,22.8
2018-11-14T10:36:29.992Z,22.9
2018-11-14T10:46:33.676Z,23
2018-11-14T10:56:37.281Z,23
2018-11-14T11:06:40.897Z,23.1
2018-11-14T11:16:44.443Z,23.1
2018-11-14T11:26:48.175Z,23
2018-11-14T11:36:51.816Z,23
2018-11-14T11:46:55.448Z,23
2018-11-14T11:56:59.074Z,22.9
2018-11-14T12:07:02.698Z,22.9
2018-11-14T12:17:06.276Z,22.1
2018-11-14T12:27:09.856Z,22.3
2018-11-14T12:37:13.912Z,22.9
2018-11-14T12:47:17.503Z,23
2018-11-14T12:57:21.090Z,23
2018-11-14T13:07:24.708Z,23.1
2018-11-14T13:17:28.288Z,23.3
2018-11-14T13:27:31.939Z,23.4
2018-11-14T13:37:35.577Z,23.5
2018-11-14T13:47:39.158Z,23.5
2018-11-14T13:57:42.991Z,23.6
2018-11-14T14:07:46.603Z,23.6
2018-11-14T14:17:50.237Z,23.5
2018-11-14T14:27:53.846Z,23.6
2018-11-14T14:37:57.510Z,23.6
2018-11-14T14:48:01.339Z,23.6
2018-11-14T14:58:04.944Z,23.6
2018-11-14T15:08:08.524Z,23.7
2018-11-14T15:18:12.256Z,23.8
2018-11-14T15:28:16.083Z,23.9
2018-11-14T15:38:19.752Z,23.8
2018-11-14T15:48:23.387Z,23.9
2018-11-14T15:58:26.959Z,23.9
2018-11-14T16:08:30.567Z,23.9
2018-11-14T16:18:34.081Z,24
2018-11-14T16:28:38.024Z,23.9
2018-11-14T16:38:42.951Z,24
2018-11-14T16:48:46.558Z,24
2018-11-14T16:58:50.195Z,24
2018-11-14T17:08:53.755Z,23.9
2018-11-14T17:18:57.368Z,24
2018-11-14T17:29:00.994Z,24
2018-11-14T17:39:04.530Z,23.9
2018-11-14T17:49:08.327Z,23.9
2018-11-14T17:59:12.038Z,23.9
2018-11-14T18:09:15.588Z,23.7
2018-11-14T18:19:19.328Z,23.6
2018-11-14T18:29:22.952Z,23.6
2018-11-14T18:39:26.724Z,23.5
2018-11-14T18:49:30.651Z,23.4
2018-11-14T18:59:34.209Z,23.4
2018-11-14T19:09:37.867Z,23.3
2018-11-14T19:19:41.444Z,23.2
2018-11-14T19:29:45.116Z,23.2
2018-11-14T19:39:48.853Z,23.1
2018-11-14T19:49:52.487Z,23
2018-11-14T19:59:56.140Z,23
2018-11-14T20:09:59.730Z,23
2018-11-14T20:20:03.345Z,22.9
2018-11-14T20:30:06.889Z,22.9
2018-11-14T20:40:10.728Z,22.8
2018-11-14T20:50:14.400Z,22.8
2018-11-14T21:00:18.043Z,22.8
2018-11-14T21:10:21.611Z,22.7
2018-11-14T21:20:25.251Z,22.7
2018-11-14T21:30:28.975Z,22.6
2018-11-14T21:40:32.579Z,22.6
2018-11-14T21:50:36.196Z,22.5
2018-11-14T22:00:39.933Z,22.5
2018-11-14T22:10:43.596Z,22.5
2018-11-14T22:20:47.117Z,22.5
2018-11-14T22:30:50.720Z,22.5
2018-11-14T22:40:54.420Z,22.4
2018-11-14T22:50:58.012Z,22.4
2018-11-14T23:01:01.720Z,22.4
2018-11-14T23:11:05.394Z,22.3
2018-11-14T23:21:08.944Z,22.3
2018-11-14T23:31:12.661Z,22.3
2018-11-14T23:41:16.312Z,22.2
2018-11-14T23:51:19.881Z,22.2
